• Join FlightAware (Why Join?)
  • Login
  • US Flag 
09:38AM EDT


 

Airport Tracker/Info


-or-


 

Live Flight TrackerFlight Track Log ✈ FSR411 ✈ 09-May-2013 ✈ KCMI - KDET

Flight Track Log - Related Links

Times and Time Zones

All times are in EDT time to prevent confusion due to time zone crossing. See the FSR411 flight status page for this flight to view local times or setup timezone preferences in your user account.

Time Position Orientation Groundspeed Altitude Reporting Facility
EDT Latitude Longitude Course Direction KTS MPH feet Rate Location/Type
07:26AM 40.0256 -88.2006 75° East 190 219 3,700  Level Chicago Center
07:27AM 40.0642 -88.1067 62° Northeast 242 278 7,400 3,120 Climbing Chicago Center
07:28AM 40.0950 -88.0125 67° East 278 320 10,100 2,340 Climbing Chicago Center
07:29AM 40.1325 -87.8967 67° East 340 391 12,200 2,100 Climbing Chicago Center
07:30AM 40.1747 -87.7681 67° East 379 436 14,500 3,060 Climbing Chicago Center
07:31AM 40.2598 -87.5509 75° East  Level FlightAware Approximate
07:31AM 40.2225 -87.6250 66° East 404 465 18,500  Level Chicago Center
07:32AM 40.2669 -87.4881 67° East 409 471 21,700 2,880 Climbing Chicago Center
07:33AM 40.3203 -87.3214 67° East 428 493 24,500 1,560 Climbing Chicago Center
07:34AM 40.3700 -87.1694 67° East 451 519 25,000 240 Climbing Chicago Center
07:35AM 40.4181 -87.0133 68° East 459 528 25,000  Level Chicago Center
07:36AM 40.4678 -86.8583 67° East 461 531 25,000  Level Chicago Center
07:37AM 40.5164 -86.7028 68° East 461 531 25,000  Level Chicago Center
07:38AM 40.5647 -86.5508 67° East 455 524 25,000  Level Chicago Center
07:39AM 40.6125 -86.3983 68° East 451 519 25,000  Level Chicago Center
07:40AM 40.6697 -86.2156 68° East 450 518 25,000  Level Chicago Center
07:41AM 40.7128 -86.0725 68° East 455 524 25,000  Level Chicago Center
07:42AM 40.7608 -85.9189 68° East 456 525 25,000  Level Chicago Center
07:43AM 40.8078 -85.7628 68° East 460 529 25,000 -480 Level Chicago Center
07:44AM 40.8644 -85.5769 68° East 458 527 24,100 -1,200 Descending Chicago Center
07:45AM 40.9108 -85.4264 68° East 449 517 22,600 -1,500 Descending Chicago Center
07:46AM 40.9581 -85.2778 67° East 443 510 21,100 -1,500 Descending Chicago Center
07:47AM 41.0014 -85.1317 69° East 437 503 19,600 -1,500 Descending Chicago Center
07:48AM 41.0442 -84.9942 68° East 416 479 18,100 -1,260 Descending Chicago Center
07:49AM 41.0861 -84.8592 68° East 406 467 17,100 -540 Descending Chicago Center
07:50AM 41.1353 -84.6992 68° East 395 455 17,100 -300 Level Chicago Center
07:51AM 41.1758 -84.5656 68° East 394 453 16,600 -840 Descending Chicago Center
07:52AM 41.2158 -84.4336 68° East 389 448 15,400 -1,200 Descending Chicago Center
07:53AM 41.2550 -84.3042 68° East 381 438 14,200 -1,260 Descending Chicago Center
07:54AM 41.2942 -84.1728 68° East 384 442 12,900 -1,440 Descending Chicago Center
07:55AM 41.3250 -84.0756 67° East 381 438 11,800 -1,380 Descending Cleveland Center
07:56AM 41.3622 -83.9503 68° East 369 425 10,600 -900 Descending Cleveland Center
07:57AM 41.3969 -83.8275 69° East 364 419 10,000 -300 Descending Cleveland Center
07:58AM 41.4336 -83.7047 68° East 359 413 10,000  Level Cleveland Center
07:59AM 41.4744 -83.5875 65° Northeast 352 405 10,000  Level Cleveland Center
08:00AM 41.5169 -83.4703 64° Northeast 352 405 10,100  Climbing Cleveland Center
08:01AM 41.5636 -83.3556 61° Northeast 352 405 10,100 -120 Level Cleveland Center
08:02AM 41.5903 -83.2847 63° Northeast 351 404 10,000 -60 Descending Cleveland Center
08:03AM 41.6389 -83.1700 60° Northeast 320 368 10,000  Level Cleveland Center
08:04AM 41.6700 -83.0850 64° Northeast 294 338 10,000  Level Cleveland Center
08:05AM 41.7072 -82.9947 61° Northeast 297 342 10,000 -240 Level Cleveland Center
08:06AM 41.7964 -82.9283 29° Northeast 282 325 9,500 -660 Descending Cleveland Center
08:07AM 41.8575 -82.8917 24° Northeast 281 323 8,700 -1,020 Descending Cleveland Center
08:08AM 41.9250 -82.8467 26° Northeast 278 320 7,700 -1,080 Descending Cleveland Center
08:09AM 42.0053 -82.7992 24° Northeast 265 305 6,500 -1,080 Descending Cleveland Center
08:10AM 42.0644 -82.7592 27° Northeast 267 307 5,600 -1,020 Descending Cleveland Center
08:11AM 42.1372 -82.7644 357° North 264 304 4,600 -780 Descending Cleveland Center
08:12AM 42.2094 -82.8089 335° Northwest 261 300 4,000 -300 Descending Cleveland Center
08:13AM 42.2667 -82.8672 323° Northwest 221 254 4,000 -420 Level Cleveland Center
08:14AM 42.3056 -82.9050 324° Northwest 188 216 3,200 -960 Descending Cleveland Center
08:15AM 42.3464 -82.9458 324° Northwest 152 175 2,000 -900 Descending Cleveland Center
08:16AM 42.3831 -82.9808 325° Northwest 125 144 1,200 -780 Descending Cleveland Center